South Hiram, Maine
Current Conditions -  °F | °C
As of 6:54 PM on Sunday 25 Jan 2015 (Local Time) from KIZG Reporting Station
Clear Clear  
Wind Chill: -11°   Ceiling: Unl
Heat Index: -11°   Visibility: 10mi
Dew Point: -19°   Wind: 3mph
Humidity: 49%   Direction: 240°WSW
Pressure: 29.86"   Gusts: NA
Location:  43.8772°N, 70.8351°W
Report Text: KIZG 252354Z AUTO 24003KT 10SM CLR M11/M19 A2986 RMK AO2 SLP118 T11061194 11033 21106 51057
Loading
Personal Weather Stations






























Interactive Weather Map New forecast layout! Learn more

10-Day Weather Forecast

Advertisements
Track Severe Weather on mobile